Lewistown, Pennsylvania
Current Conditions -  °F | °C
As of 2:53 PM on Thursday 23 Oct 2014 (Local Time) from KUNV Reporting Station
Overcast Overcast  
Wind Chill: 59°   Ceiling: 4300
Heat Index: 59°   Visibility: 10mi
Dew Point: 41°   Wind: 16mph
Humidity: 51%   Direction: 360°N
Pressure: 29.92"   Gusts: 31mph
Location:  40.6°N, 77.57°W
Report Text: KUNV 231853Z 36014G27KT 10SM OVC043 15/05 A2992
Loading
Personal Weather Stations






























Interactive Weather Map
Tropical Storm Tracking
New forecast layout! Learn more

10-Day Weather Forecast

Advertisements
Track Severe Weather on mobile